sensor_id;sensor_type;location;lat;lon;timestamp;P1;durP1;ratioP1;P2;durP2;ratioP2
70908;SDS011;58554;52.006;5.926;2023-06-22T00:01:06;7.35;;;4.10;;
70908;SDS011;58554;52.006;5.926;2023-06-22T00:03:32;7.40;;;3.60;;
70908;SDS011;58554;52.006;5.926;2023-06-22T00:05:59;7.07;;;4.40;;
70908;SDS011;58554;52.006;5.926;2023-06-22T00:08:25;7.45;;;4.10;;
70908;SDS011;58554;52.006;5.926;2023-06-22T00:10:52;7.82;;;4.30;;
70908;SDS011;58554;52.006;5.926;2023-06-22T00:13:18;7.47;;;4.70;;
70908;SDS011;58554;52.006;5.926;2023-06-22T00:15:45;6.73;;;4.37;;
70908;SDS011;58554;52.006;5.926;2023-06-22T00:18:14;6.70;;;4.70;;
70908;SDS011;58554;52.006;5.926;2023-06-22T00:20:43;7.15;;;4.97;;
70908;SDS011;58554;52.006;5.926;2023-06-22T00:23:09;8.68;;;4.90;;
70908;SDS011;58554;52.006;5.926;2023-06-22T00:25:36;8.10;;;4.53;;
70908;SDS011;58554;52.006;5.926;2023-06-22T00:28:04;6.95;;;4.30;;
70908;SDS011;58554;52.006;5.926;2023-06-22T00:30:31;5.85;;;4.00;;
70908;SDS011;58554;52.006;5.926;2023-06-22T00:32:58;7.53;;;4.00;;
70908;SDS011;58554;52.006;5.926;2023-06-22T00:35:29;6.97;;;4.15;;
70908;SDS011;58554;52.006;5.926;2023-06-22T00:37:55;6.90;;;4.63;;
70908;SDS011;58554;52.006;5.926;2023-06-22T00:40:22;8.93;;;4.73;;
70908;SDS011;58554;52.006;5.926;2023-06-22T00:42:49;6.72;;;4.40;;
70908;SDS011;58554;52.006;5.926;2023-06-22T00:45:15;8.07;;;4.70;;
70908;SDS011;58554;52.006;5.926;2023-06-22T00:47:42;10.33;;;5.73;;
70908;SDS011;58554;52.006;5.926;2023-06-22T00:50:08;7.93;;;4.78;;
70908;SDS011;58554;52.006;5.926;2023-06-22T00:52:46;8.32;;;4.93;;
70908;SDS011;58554;52.006;5.926;2023-06-22T00:55:17;6.93;;;4.73;;
70908;SDS011;58554;52.006;5.926;2023-06-22T00:57:45;7.97;;;4.80;;
70908;SDS011;58554;52.006;5.926;2023-06-22T01:00:15;8.35;;;4.82;;
70908;SDS011;58554;52.006;5.926;2023-06-22T01:02:43;8.30;;;4.77;;
70908;SDS011;58554;52.006;5.926;2023-06-22T01:05:11;8.03;;;5.03;;
70908;SDS011;58554;52.006;5.926;2023-06-22T01:07:39;7.15;;;4.50;;
70908;SDS011;58554;52.006;5.926;2023-06-22T01:10:18;7.70;;;4.20;;
70908;SDS011;58554;52.006;5.926;2023-06-22T01:12:57;5.80;;;3.90;;
70908;SDS011;58554;52.006;5.926;2023-06-22T01:15:30;5.93;;;3.83;;
70908;SDS011;58554;52.006;5.926;2023-06-22T01:18:05;5.60;;;3.60;;
70908;SDS011;58554;52.006;5.926;2023-06-22T01:20:35;6.60;;;3.83;;
70908;SDS011;58554;52.006;5.926;2023-06-22T01:23:07;6.93;;;4.10;;
70908;SDS011;58554;52.006;5.926;2023-06-22T01:25:46;5.50;;;4.07;;
70908;SDS011;58554;52.006;5.926;2023-06-22T01:31:13;6.18;;;4.18;;
70908;SDS011;58554;52.006;5.926;2023-06-22T01:33:44;6.05;;;3.75;;
70908;SDS011;58554;52.006;5.926;2023-06-22T01:36:17;7.93;;;4.60;;
70908;SDS011;58554;52.006;5.926;2023-06-22T01:38:45;9.13;;;5.10;;
70908;SDS011;58554;52.006;5.926;2023-06-22T01:41:14;8.40;;;4.72;;
70908;SDS011;58554;52.006;5.926;2023-06-22T01:43:46;8.10;;;5.15;;
70908;SDS011;58554;52.006;5.926;2023-06-22T01:46:14;8.55;;;5.53;;
70908;SDS011;58554;52.006;5.926;2023-06-22T01:48:42;7.90;;;4.73;;
70908;SDS011;58554;52.006;5.926;2023-06-22T01:51:09;8.98;;;5.50;;
70908;SDS011;58554;52.006;5.926;2023-06-22T01:53:36;10.03;;;5.27;;
70908;SDS011;58554;52.006;5.926;2023-06-22T01:56:02;7.97;;;5.20;;
70908;SDS011;58554;52.006;5.926;2023-06-22T01:58:30;8.02;;;5.28;;
70908;SDS011;58554;52.006;5.926;2023-06-22T02:01:04;10.13;;;6.57;;
70908;SDS011;58554;52.006;5.926;2023-06-22T02:03:37;11.43;;;6.07;;
70908;SDS011;58554;52.006;5.926;2023-06-22T02:06:19;9.73;;;6.50;;
70908;SDS011;58554;52.006;5.926;2023-06-22T02:08:57;11.63;;;6.32;;
70908;SDS011;58554;52.006;5.926;2023-06-22T02:11:28;8.38;;;5.65;;
70908;SDS011;58554;52.006;5.926;2023-06-22T02:13:59;8.63;;;5.80;;
70908;SDS011;58554;52.006;5.926;2023-06-22T02:16:29;10.35;;;5.97;;
70908;SDS011;58554;52.006;5.926;2023-06-22T02:18:58;8.65;;;5.63;;
70908;SDS011;58554;52.006;5.926;2023-06-22T02:21:28;9.93;;;5.97;;
70908;SDS011;58554;52.006;5.926;2023-06-22T02:23:56;8.73;;;5.50;;
70908;SDS011;58554;52.006;5.926;2023-06-22T02:26:23;9.18;;;5.40;;
70908;SDS011;58554;52.006;5.926;2023-06-22T02:28:51;10.57;;;5.70;;
70908;SDS011;58554;52.006;5.926;2023-06-22T02:31:18;9.90;;;5.50;;
70908;SDS011;58554;52.006;5.926;2023-06-22T02:33:48;10.43;;;6.50;;
70908;SDS011;58554;52.006;5.926;2023-06-22T02:36:15;8.43;;;5.70;;
70908;SDS011;58554;52.006;5.926;2023-06-22T02:38:41;9.97;;;5.80;;
70908;SDS011;58554;52.006;5.926;2023-06-22T02:41:10;9.15;;;6.38;;
70908;SDS011;58554;52.006;5.926;2023-06-22T02:43:36;9.52;;;6.85;;
70908;SDS011;58554;52.006;5.926;2023-06-22T02:46:03;10.67;;;7.20;;
70908;SDS011;58554;52.006;5.926;2023-06-22T02:48:29;10.25;;;6.72;;
70908;SDS011;58554;52.006;5.926;2023-06-22T02:50:59;9.30;;;6.13;;
70908;SDS011;58554;52.006;5.926;2023-06-22T02:53:25;9.90;;;6.60;;
70908;SDS011;58554;52.006;5.926;2023-06-22T02:55:52;11.40;;;6.70;;
70908;SDS011;58554;52.006;5.926;2023-06-22T02:58:19;12.47;;;7.10;;
70908;SDS011;58554;52.006;5.926;2023-06-22T03:00:45;12.20;;;7.18;;
70908;SDS011;58554;52.006;5.926;2023-06-22T03:03:12;11.23;;;7.00;;
70908;SDS011;58554;52.006;5.926;2023-06-22T03:05:39;11.20;;;7.18;;
70908;SDS011;58554;52.006;5.926;2023-06-22T03:08:08;10.80;;;6.93;;
70908;SDS011;58554;52.006;5.926;2023-06-22T03:10:34;11.18;;;6.70;;
70908;SDS011;58554;52.006;5.926;2023-06-22T03:13:01;11.73;;;7.68;;
70908;SDS011;58554;52.006;5.926;2023-06-22T03:15:29;12.20;;;8.37;;
70908;SDS011;58554;52.006;5.926;2023-06-22T03:17:55;12.88;;;8.48;;
70908;SDS011;58554;52.006;5.926;2023-06-22T03:20:22;12.05;;;7.70;;
70908;SDS011;58554;52.006;5.926;2023-06-22T03:22:48;11.07;;;7.43;;
70908;SDS011;58554;52.006;5.926;2023-06-22T03:25:18;12.75;;;7.75;;
70908;SDS011;58554;52.006;5.926;2023-06-22T03:27:44;13.00;;;8.27;;
70908;SDS011;58554;52.006;5.926;2023-06-22T03:30:11;16.13;;;8.83;;
70908;SDS011;58554;52.006;5.926;2023-06-22T03:32:38;13.85;;;8.35;;
70908;SDS011;58554;52.006;5.926;2023-06-22T03:35:05;13.70;;;8.73;;
70908;SDS011;58554;52.006;5.926;2023-06-22T03:37:33;14.75;;;8.73;;
70908;SDS011;58554;52.006;5.926;2023-06-22T03:40:00;15.37;;;8.77;;
70908;SDS011;58554;52.006;5.926;2023-06-22T03:42:29;12.65;;;8.77;;
70908;SDS011;58554;52.006;5.926;2023-06-22T03:44:56;14.93;;;9.38;;
70908;SDS011;58554;52.006;5.926;2023-06-22T03:47:22;14.20;;;9.20;;
70908;SDS011;58554;52.006;5.926;2023-06-22T03:49:49;15.65;;;9.68;;
70908;SDS011;58554;52.006;5.926;2023-06-22T03:52:16;15.15;;;10.15;;
70908;SDS011;58554;52.006;5.926;2023-06-22T03:54:42;16.52;;;9.55;;
70908;SDS011;58554;52.006;5.926;2023-06-22T03:57:09;16.48;;;10.52;;
70908;SDS011;58554;52.006;5.926;2023-06-22T03:59:38;17.03;;;10.20;;
70908;SDS011;58554;52.006;5.926;2023-06-22T04:02:05;18.60;;;11.20;;
70908;SDS011;58554;52.006;5.926;2023-06-22T04:04:31;19.38;;;11.27;;
70908;SDS011;58554;52.006;5.926;2023-06-22T04:06:58;20.00;;;10.87;;
70908;SDS011;58554;52.006;5.926;2023-06-22T04:09:24;19.80;;;11.85;;
70908;SDS011;58554;52.006;5.926;2023-06-22T04:11:51;19.67;;;11.98;;
70908;SDS011;58554;52.006;5.926;2023-06-22T04:14:18;19.60;;;12.23;;
70908;SDS011;58554;52.006;5.926;2023-06-22T04:16:47;21.00;;;12.10;;
70908;SDS011;58554;52.006;5.926;2023-06-22T04:19:14;20.52;;;12.38;;
70908;SDS011;58554;52.006;5.926;2023-06-22T04:21:40;19.37;;;12.40;;
70908;SDS011;58554;52.006;5.926;2023-06-22T04:24:07;19.70;;;12.20;;
70908;SDS011;58554;52.006;5.926;2023-06-22T04:26:34;21.03;;;12.70;;
70908;SDS011;58554;52.006;5.926;2023-06-22T04:29:00;22.77;;;12.27;;
70908;SDS011;58554;52.006;5.926;2023-06-22T04:31:27;22.40;;;13.30;;
70908;SDS011;58554;52.006;5.926;2023-06-22T04:33:56;23.30;;;13.98;;
70908;SDS011;58554;52.006;5.926;2023-06-22T04:36:23;23.20;;;13.70;;
70908;SDS011;58554;52.006;5.926;2023-06-22T04:38:50;25.67;;;14.80;;
70908;SDS011;58554;52.006;5.926;2023-06-22T04:41:17;25.98;;;15.00;;
70908;SDS011;58554;52.006;5.926;2023-06-22T04:43:44;26.77;;;15.30;;
70908;SDS011;58554;52.006;5.926;2023-06-22T04:46:10;24.47;;;14.20;;
70908;SDS011;58554;52.006;5.926;2023-06-22T04:48:37;25.17;;;15.40;;
70908;SDS011;58554;52.006;5.926;2023-06-22T04:51:06;24.33;;;15.35;;
70908;SDS011;58554;52.006;5.926;2023-06-22T04:53:33;25.47;;;14.83;;
70908;SDS011;58554;52.006;5.926;2023-06-22T04:56:00;25.13;;;15.55;;
70908;SDS011;58554;52.006;5.926;2023-06-22T04:58:26;23.70;;;15.10;;
70908;SDS011;58554;52.006;5.926;2023-06-22T05:00:53;30.23;;;16.60;;
70908;SDS011;58554;52.006;5.926;2023-06-22T05:03:20;26.67;;;15.77;;
70908;SDS011;58554;52.006;5.926;2023-06-22T05:05:46;29.60;;;15.80;;
70908;SDS011;58554;52.006;5.926;2023-06-22T05:08:16;27.30;;;15.47;;
70908;SDS011;58554;52.006;5.926;2023-06-22T05:10:42;25.55;;;15.10;;
70908;SDS011;58554;52.006;5.926;2023-06-22T05:13:09;26.23;;;15.68;;
70908;SDS011;58554;52.006;5.926;2023-06-22T05:15:36;23.57;;;14.90;;
70908;SDS011;58554;52.006;5.926;2023-06-22T05:18:02;26.52;;;15.38;;
70908;SDS011;58554;52.006;5.926;2023-06-22T05:20:29;24.52;;;15.25;;
70908;SDS011;58554;52.006;5.926;2023-06-22T05:22:56;25.87;;;15.50;;
70908;SDS011;58554;52.006;5.926;2023-06-22T05:25:25;25.40;;;14.45;;
70908;SDS011;58554;52.006;5.926;2023-06-22T05:27:52;26.20;;;15.30;;
70908;SDS011;58554;52.006;5.926;2023-06-22T05:30:19;24.73;;;13.87;;
70908;SDS011;58554;52.006;5.926;2023-06-22T05:32:45;25.75;;;15.05;;
70908;SDS011;58554;52.006;5.926;2023-06-22T05:35:12;24.25;;;14.65;;
70908;SDS011;58554;52.006;5.926;2023-06-22T05:37:40;27.97;;;15.20;;
70908;SDS011;58554;52.006;5.926;2023-06-22T05:40:08;25.08;;;15.05;;
70908;SDS011;58554;52.006;5.926;2023-06-22T05:42:39;25.73;;;15.68;;
70908;SDS011;58554;52.006;5.926;2023-06-22T05:45:06;27.23;;;15.13;;
70908;SDS011;58554;52.006;5.926;2023-06-22T05:47:33;24.33;;;14.88;;
70908;SDS011;58554;52.006;5.926;2023-06-22T05:50:00;25.73;;;14.93;;
70908;SDS011;58554;52.006;5.926;2023-06-22T05:52:27;23.73;;;15.30;;
70908;SDS011;58554;52.006;5.926;2023-06-22T05:54:53;27.98;;;14.85;;
70908;SDS011;58554;52.006;5.926;2023-06-22T05:57:20;23.83;;;14.87;;
70908;SDS011;58554;52.006;5.926;2023-06-22T05:59:49;24.00;;;14.55;;
70908;SDS011;58554;52.006;5.926;2023-06-22T06:02:16;24.08;;;13.80;;
70908;SDS011;58554;52.006;5.926;2023-06-22T06:04:43;21.87;;;13.90;;
70908;SDS011;58554;52.006;5.926;2023-06-22T06:07:09;24.20;;;14.57;;
70908;SDS011;58554;52.006;5.926;2023-06-22T06:09:36;20.40;;;13.55;;
70908;SDS011;58554;52.006;5.926;2023-06-22T06:12:03;24.97;;;13.80;;
70908;SDS011;58554;52.006;5.926;2023-06-22T06:14:31;25.13;;;13.68;;
70908;SDS011;58554;52.006;5.926;2023-06-22T06:17:00;21.60;;;14.18;;
70908;SDS011;58554;52.006;5.926;2023-06-22T06:19:27;19.27;;;12.53;;
70908;SDS011;58554;52.006;5.926;2023-06-22T06:21:53;22.83;;;13.45;;
70908;SDS011;58554;52.006;5.926;2023-06-22T06:24:20;21.95;;;13.25;;
70908;SDS011;58554;52.006;5.926;2023-06-22T06:26:46;21.90;;;12.83;;
70908;SDS011;58554;52.006;5.926;2023-06-22T06:29:13;19.90;;;13.13;;
70908;SDS011;58554;52.006;5.926;2023-06-22T06:31:40;20.13;;;13.07;;
70908;SDS011;58554;52.006;5.926;2023-06-22T06:34:09;21.27;;;12.93;;
70908;SDS011;58554;52.006;5.926;2023-06-22T06:36:35;18.38;;;12.32;;
70908;SDS011;58554;52.006;5.926;2023-06-22T06:39:02;18.87;;;12.63;;
70908;SDS011;58554;52.006;5.926;2023-06-22T06:41:28;19.73;;;12.80;;
70908;SDS011;58554;52.006;5.926;2023-06-22T06:43:55;21.63;;;12.37;;
70908;SDS011;58554;52.006;5.926;2023-06-22T06:46:22;17.90;;;11.83;;
70908;SDS011;58554;52.006;5.926;2023-06-22T06:48:48;16.40;;;10.75;;
70908;SDS011;58554;52.006;5.926;2023-06-22T06:51:18;16.73;;;11.40;;
70908;SDS011;58554;52.006;5.926;2023-06-22T06:53:44;17.13;;;11.52;;
70908;SDS011;58554;52.006;5.926;2023-06-22T06:56:11;16.53;;;10.70;;
70908;SDS011;58554;52.006;5.926;2023-06-22T06:58:40;16.55;;;10.52;;
70908;SDS011;58554;52.006;5.926;2023-06-22T07:01:07;15.88;;;10.55;;
70908;SDS011;58554;52.006;5.926;2023-06-22T07:03:33;16.50;;;10.73;;
70908;SDS011;58554;52.006;5.926;2023-06-22T07:06:02;15.45;;;10.52;;
70908;SDS011;58554;52.006;5.926;2023-06-22T07:08:32;41.40;;;11.93;;
70908;SDS011;58554;52.006;5.926;2023-06-22T07:10:58;16.43;;;11.10;;
70908;SDS011;58554;52.006;5.926;2023-06-22T07:13:25;18.75;;;11.05;;
70908;SDS011;58554;52.006;5.926;2023-06-22T07:15:51;16.53;;;11.07;;
70908;SDS011;58554;52.006;5.926;2023-06-22T07:18:18;17.30;;;11.35;;
70908;SDS011;58554;52.006;5.926;2023-06-22T07:20:45;17.00;;;11.32;;
70908;SDS011;58554;52.006;5.926;2023-06-22T07:23:11;17.83;;;11.30;;
70908;SDS011;58554;52.006;5.926;2023-06-22T07:25:41;16.40;;;10.93;;
70908;SDS011;58554;52.006;5.926;2023-06-22T07:28:10;17.08;;;11.02;;
70908;SDS011;58554;52.006;5.926;2023-06-22T07:30:36;14.88;;;10.85;;
70908;SDS011;58554;52.006;5.926;2023-06-22T07:33:03;15.57;;;11.13;;
70908;SDS011;58554;52.006;5.926;2023-06-22T07:35:30;15.98;;;11.13;;
70908;SDS011;58554;52.006;5.926;2023-06-22T07:37:57;16.07;;;10.70;;
70908;SDS011;58554;52.006;5.926;2023-06-22T07:40:24;16.17;;;10.40;;
70908;SDS011;58554;52.006;5.926;2023-06-22T07:42:53;14.68;;;10.35;;
70908;SDS011;58554;52.006;5.926;2023-06-22T07:45:20;14.33;;;10.30;;
70908;SDS011;58554;52.006;5.926;2023-06-22T07:47:46;16.23;;;11.00;;
70908;SDS011;58554;52.006;5.926;2023-06-22T07:50:13;14.30;;;10.07;;
70908;SDS011;58554;52.006;5.926;2023-06-22T07:52:40;13.60;;;9.57;;
70908;SDS011;58554;52.006;5.926;2023-06-22T07:55:07;15.65;;;10.40;;
70908;SDS011;58554;52.006;5.926;2023-06-22T07:57:34;15.47;;;9.73;;
70908;SDS011;58554;52.006;5.926;2023-06-22T08:00:04;13.20;;;9.32;;
70908;SDS011;58554;52.006;5.926;2023-06-22T08:02:33;14.13;;;9.82;;
70908;SDS011;58554;52.006;5.926;2023-06-22T08:04:59;14.47;;;9.60;;
70908;SDS011;58554;52.006;5.926;2023-06-22T08:07:26;14.60;;;9.80;;
70908;SDS011;58554;52.006;5.926;2023-06-22T08:09:53;13.60;;;9.53;;
70908;SDS011;58554;52.006;5.926;2023-06-22T08:12:19;12.32;;;9.15;;
70908;SDS011;58554;52.006;5.926;2023-06-22T08:14:46;14.13;;;9.80;;
70908;SDS011;58554;52.006;5.926;2023-06-22T08:17:15;14.10;;;9.80;;
70908;SDS011;58554;52.006;5.926;2023-06-22T08:19:41;14.18;;;10.60;;
70908;SDS011;58554;52.006;5.926;2023-06-22T08:22:08;13.07;;;9.90;;
70908;SDS011;58554;52.006;5.926;2023-06-22T08:24:35;14.07;;;9.97;;
70908;SDS011;58554;52.006;5.926;2023-06-22T08:27:01;14.53;;;10.00;;
70908;SDS011;58554;52.006;5.926;2023-06-22T08:29:28;15.10;;;10.37;;
70908;SDS011;58554;52.006;5.926;2023-06-22T08:31:55;14.33;;;9.57;;
70908;SDS011;58554;52.006;5.926;2023-06-22T08:34:24;12.60;;;9.23;;
70908;SDS011;58554;52.006;5.926;2023-06-22T08:36:51;13.55;;;9.40;;
70908;SDS011;58554;52.006;5.926;2023-06-22T08:39:17;13.90;;;9.20;;
70908;SDS011;58554;52.006;5.926;2023-06-22T08:41:44;12.23;;;8.82;;
70908;SDS011;58554;52.006;5.926;2023-06-22T08:44:11;12.77;;;9.07;;
70908;SDS011;58554;52.006;5.926;2023-06-22T08:46:38;12.57;;;8.30;;
70908;SDS011;58554;52.006;5.926;2023-06-22T08:49:05;12.85;;;9.10;;
70908;SDS011;58554;52.006;5.926;2023-06-22T08:51:34;11.37;;;8.57;;
70908;SDS011;58554;52.006;5.926;2023-06-22T08:54:01;11.43;;;8.50;;
70908;SDS011;58554;52.006;5.926;2023-06-22T08:56:28;11.18;;;8.52;;
70908;SDS011;58554;52.006;5.926;2023-06-22T08:58:54;10.20;;;7.68;;
70908;SDS011;58554;52.006;5.926;2023-06-22T09:01:21;9.15;;;7.20;;
70908;SDS011;58554;52.006;5.926;2023-06-22T09:03:48;9.70;;;7.28;;
70908;SDS011;58554;52.006;5.926;2023-06-22T09:06:14;10.20;;;7.33;;
70908;SDS011;58554;52.006;5.926;2023-06-22T09:08:44;9.90;;;7.17;;
70908;SDS011;58554;52.006;5.926;2023-06-22T09:11:10;10.25;;;7.55;;
70908;SDS011;58554;52.006;5.926;2023-06-22T09:13:37;11.00;;;7.27;;
70908;SDS011;58554;52.006;5.926;2023-06-22T09:16:03;10.17;;;6.93;;
70908;SDS011;58554;52.006;5.926;2023-06-22T09:18:30;10.35;;;6.97;;
70908;SDS011;58554;52.006;5.926;2023-06-22T09:20:57;11.52;;;7.25;;
70908;SDS011;58554;52.006;5.926;2023-06-22T09:23:23;10.37;;;7.77;;
70908;SDS011;58554;52.006;5.926;2023-06-22T09:25:52;9.37;;;6.87;;
70908;SDS011;58554;52.006;5.926;2023-06-22T09:28:19;9.55;;;6.85;;
70908;SDS011;58554;52.006;5.926;2023-06-22T09:30:45;10.60;;;6.95;;
70908;SDS011;58554;52.006;5.926;2023-06-22T09:33:12;9.67;;;6.60;;
70908;SDS011;58554;52.006;5.926;2023-06-22T09:35:39;9.57;;;6.40;;
70908;SDS011;58554;52.006;5.926;2023-06-22T09:38:05;9.15;;;6.47;;
70908;SDS011;58554;52.006;5.926;2023-06-22T09:40:32;9.23;;;6.37;;
70908;SDS011;58554;52.006;5.926;2023-06-22T09:43:01;8.40;;;6.32;;
70908;SDS011;58554;52.006;5.926;2023-06-22T09:45:28;8.98;;;6.88;;
70908;SDS011;58554;52.006;5.926;2023-06-22T09:47:55;9.17;;;6.40;;
70908;SDS011;58554;52.006;5.926;2023-06-22T09:50:21;8.57;;;6.28;;
70908;SDS011;58554;52.006;5.926;2023-06-22T09:52:48;9.23;;;6.32;;
70908;SDS011;58554;52.006;5.926;2023-06-22T09:55:14;10.00;;;6.05;;
70908;SDS011;58554;52.006;5.926;2023-06-22T09:57:41;9.35;;;6.43;;
70908;SDS011;58554;52.006;5.926;2023-06-22T10:00:14;13.07;;;6.70;;
70908;SDS011;58554;52.006;5.926;2023-06-22T10:02:43;9.40;;;6.88;;
70908;SDS011;58554;52.006;5.926;2023-06-22T10:05:10;9.48;;;6.60;;
70908;SDS011;58554;52.006;5.926;2023-06-22T10:07:37;7.50;;;5.70;;
70908;SDS011;58554;52.006;5.926;2023-06-22T10:10:04;8.45;;;6.63;;
70908;SDS011;58554;52.006;5.926;2023-06-22T10:12:34;10.60;;;6.57;;
70908;SDS011;58554;52.006;5.926;2023-06-22T10:15:00;8.60;;;6.20;;
70908;SDS011;58554;52.006;5.926;2023-06-22T10:17:30;7.50;;;5.80;;
70908;SDS011;58554;52.006;5.926;2023-06-22T10:19:56;8.23;;;6.22;;
70908;SDS011;58554;52.006;5.926;2023-06-22T10:22:23;7.15;;;5.82;;
70908;SDS011;58554;52.006;5.926;2023-06-22T10:24:49;9.38;;;6.65;;
70908;SDS011;58554;52.006;5.926;2023-06-22T10:27:16;8.43;;;6.40;;
70908;SDS011;58554;52.006;5.926;2023-06-22T10:29:42;9.50;;;6.70;;
70908;SDS011;58554;52.006;5.926;2023-06-22T10:32:09;8.85;;;6.32;;
70908;SDS011;58554;52.006;5.926;2023-06-22T10:34:39;9.48;;;6.65;;
70908;SDS011;58554;52.006;5.926;2023-06-22T10:37:05;9.10;;;6.75;;
70908;SDS011;58554;52.006;5.926;2023-06-22T10:39:32;11.57;;;6.97;;
70908;SDS011;58554;52.006;5.926;2023-06-22T10:41:59;8.33;;;6.93;;
70908;SDS011;58554;52.006;5.926;2023-06-22T10:44:25;9.43;;;7.07;;
70908;SDS011;58554;52.006;5.926;2023-06-22T10:46:52;9.52;;;6.70;;
70908;SDS011;58554;52.006;5.926;2023-06-22T10:49:18;11.15;;;7.60;;
70908;SDS011;58554;52.006;5.926;2023-06-22T10:51:47;9.57;;;7.15;;
70908;SDS011;58554;52.006;5.926;2023-06-22T10:54:14;9.10;;;6.93;;
70908;SDS011;58554;52.006;5.926;2023-06-22T10:56:40;9.55;;;6.78;;
70908;SDS011;58554;52.006;5.926;2023-06-22T10:59:07;11.30;;;7.03;;
70908;SDS011;58554;52.006;5.926;2023-06-22T11:01:33;9.73;;;6.80;;
70908;SDS011;58554;52.006;5.926;2023-06-22T11:04:00;8.90;;;7.35;;
70908;SDS011;58554;52.006;5.926;2023-06-22T11:06:27;10.32;;;7.97;;
70908;SDS011;58554;52.006;5.926;2023-06-22T11:08:56;10.70;;;7.87;;
70908;SDS011;58554;52.006;5.926;2023-06-22T11:11:22;9.47;;;7.30;;
70908;SDS011;58554;52.006;5.926;2023-06-22T11:13:49;8.97;;;6.77;;
70908;SDS011;58554;52.006;5.926;2023-06-22T11:16:15;10.73;;;7.27;;
70908;SDS011;58554;52.006;5.926;2023-06-22T11:18:42;10.40;;;7.45;;
70908;SDS011;58554;52.006;5.926;2023-06-22T11:21:09;10.40;;;7.28;;
70908;SDS011;58554;52.006;5.926;2023-06-22T11:23:35;10.47;;;8.23;;
70908;SDS011;58554;52.006;5.926;2023-06-22T11:26:04;10.90;;;8.73;;
70908;SDS011;58554;52.006;5.926;2023-06-22T11:28:31;11.68;;;8.57;;
70908;SDS011;58554;52.006;5.926;2023-06-22T11:30:57;13.32;;;9.32;;
70908;SDS011;58554;52.006;5.926;2023-06-22T11:33:24;11.75;;;8.65;;
70908;SDS011;58554;52.006;5.926;2023-06-22T11:35:50;11.83;;;8.67;;
70908;SDS011;58554;52.006;5.926;2023-06-22T11:38:17;12.13;;;9.27;;
70908;SDS011;58554;52.006;5.926;2023-06-22T11:40:44;11.27;;;9.13;;
70908;SDS011;58554;52.006;5.926;2023-06-22T11:43:13;12.67;;;9.67;;
70908;SDS011;58554;52.006;5.926;2023-06-22T11:45:39;12.15;;;9.68;;
70908;SDS011;58554;52.006;5.926;2023-06-22T11:48:06;11.43;;;9.50;;
70908;SDS011;58554;52.006;5.926;2023-06-22T11:50:32;12.65;;;10.43;;
70908;SDS011;58554;52.006;5.926;2023-06-22T11:52:59;13.85;;;10.05;;
70908;SDS011;58554;52.006;5.926;2023-06-22T11:55:26;12.35;;;10.55;;
70908;SDS011;58554;52.006;5.926;2023-06-22T11:57:53;12.23;;;9.80;;
70908;SDS011;58554;52.006;5.926;2023-06-22T12:00:25;14.23;;;10.80;;
70908;SDS011;58554;52.006;5.926;2023-06-22T12:02:52;21.85;;;11.43;;
70908;SDS011;58554;52.006;5.926;2023-06-22T12:05:19;13.57;;;11.05;;
70908;SDS011;58554;52.006;5.926;2023-06-22T12:07:46;13.03;;;10.80;;
70908;SDS011;58554;52.006;5.926;2023-06-22T12:10:13;13.60;;;11.00;;
70908;SDS011;58554;52.006;5.926;2023-06-22T12:12:39;13.98;;;10.95;;
70908;SDS011;58554;52.006;5.926;2023-06-22T12:15:06;14.40;;;11.05;;
70908;SDS011;58554;52.006;5.926;2023-06-22T12:17:38;15.37;;;11.90;;
70908;SDS011;58554;52.006;5.926;2023-06-22T12:20:06;17.20;;;11.97;;
70908;SDS011;58554;52.006;5.926;2023-06-22T12:22:34;14.80;;;11.60;;
70908;SDS011;58554;52.006;5.926;2023-06-22T12:25:01;16.20;;;11.67;;
70908;SDS011;58554;52.006;5.926;2023-06-22T12:27:27;16.77;;;12.27;;
70908;SDS011;58554;52.006;5.926;2023-06-22T12:29:54;15.50;;;12.38;;
70908;SDS011;58554;52.006;5.926;2023-06-22T12:32:20;16.27;;;12.37;;
70908;SDS011;58554;52.006;5.926;2023-06-22T12:34:50;17.03;;;12.13;;
70908;SDS011;58554;52.006;5.926;2023-06-22T12:37:16;17.88;;;12.75;;
70908;SDS011;58554;52.006;5.926;2023-06-22T12:39:43;17.50;;;12.27;;
70908;SDS011;58554;52.006;5.926;2023-06-22T12:42:10;16.80;;;12.53;;
70908;SDS011;58554;52.006;5.926;2023-06-22T12:44:37;17.23;;;12.77;;
70908;SDS011;58554;52.006;5.926;2023-06-22T12:47:05;20.20;;;12.77;;
70908;SDS011;58554;52.006;5.926;2023-06-22T12:49:32;17.03;;;12.40;;
70908;SDS011;58554;52.006;5.926;2023-06-22T12:52:01;18.08;;;12.63;;
70908;SDS011;58554;52.006;5.926;2023-06-22T12:54:28;20.23;;;13.13;;
70908;SDS011;58554;52.006;5.926;2023-06-22T12:56:55;18.03;;;13.00;;
70908;SDS011;58554;52.006;5.926;2023-06-22T12:59:22;16.43;;;12.40;;
70908;SDS011;58554;52.006;5.926;2023-06-22T13:01:48;17.83;;;12.73;;
70908;SDS011;58554;52.006;5.926;2023-06-22T13:04:15;17.20;;;12.63;;
70908;SDS011;58554;52.006;5.926;2023-06-22T13:06:41;16.87;;;12.23;;
70908;SDS011;58554;52.006;5.926;2023-06-22T13:09:11;16.67;;;12.88;;
70908;SDS011;58554;52.006;5.926;2023-06-22T13:11:37;18.07;;;12.47;;
70908;SDS011;58554;52.006;5.926;2023-06-22T13:14:04;17.97;;;12.93;;
70908;SDS011;58554;52.006;5.926;2023-06-22T13:16:31;16.43;;;12.60;;
70908;SDS011;58554;52.006;5.926;2023-06-22T13:18:57;17.17;;;12.60;;
70908;SDS011;58554;52.006;5.926;2023-06-22T13:21:24;18.92;;;12.50;;
70908;SDS011;58554;52.006;5.926;2023-06-22T13:23:50;17.73;;;13.10;;
70908;SDS011;58554;52.006;5.926;2023-06-22T13:26:20;19.03;;;12.93;;
70908;SDS011;58554;52.006;5.926;2023-06-22T13:28:47;18.70;;;13.27;;
70908;SDS011;58554;52.006;5.926;2023-06-22T13:31:13;19.33;;;13.30;;
70908;SDS011;58554;52.006;5.926;2023-06-22T13:33:40;19.43;;;13.33;;
70908;SDS011;58554;52.006;5.926;2023-06-22T13:36:07;18.77;;;12.93;;
70908;SDS011;58554;52.006;5.926;2023-06-22T13:38:34;20.77;;;12.87;;
70908;SDS011;58554;52.006;5.926;2023-06-22T13:41:02;18.67;;;13.80;;
70908;SDS011;58554;52.006;5.926;2023-06-22T13:43:31;20.13;;;12.93;;
70908;SDS011;58554;52.006;5.926;2023-06-22T13:45:58;19.80;;;13.73;;
70908;SDS011;58554;52.006;5.926;2023-06-22T13:48:24;19.67;;;14.13;;
70908;SDS011;58554;52.006;5.926;2023-06-22T13:50:51;20.73;;;12.83;;
70908;SDS011;58554;52.006;5.926;2023-06-22T13:53:18;21.53;;;13.90;;
70908;SDS011;58554;52.006;5.926;2023-06-22T13:55:44;21.13;;;14.33;;
70908;SDS011;58554;52.006;5.926;2023-06-22T13:58:11;21.13;;;14.33;;
70908;SDS011;58554;52.006;5.926;2023-06-22T14:00:40;20.25;;;14.25;;
70908;SDS011;58554;52.006;5.926;2023-06-22T14:03:07;18.90;;;14.43;;
70908;SDS011;58554;52.006;5.926;2023-06-22T14:05:33;19.43;;;14.03;;
70908;SDS011;58554;52.006;5.926;2023-06-22T14:08:00;19.80;;;14.17;;
70908;SDS011;58554;52.006;5.926;2023-06-22T14:10:26;20.67;;;13.73;;
70908;SDS011;58554;52.006;5.926;2023-06-22T14:12:53;20.48;;;14.50;;
70908;SDS011;58554;52.006;5.926;2023-06-22T14:15:19;19.03;;;13.70;;
70908;SDS011;58554;52.006;5.926;2023-06-22T14:17:49;20.53;;;13.70;;
70908;SDS011;58554;52.006;5.926;2023-06-22T14:20:15;18.75;;;13.63;;
70908;SDS011;58554;52.006;5.926;2023-06-22T14:22:42;21.37;;;14.77;;
70908;SDS011;58554;52.006;5.926;2023-06-22T14:25:09;20.65;;;14.27;;
70908;SDS011;58554;52.006;5.926;2023-06-22T14:27:35;19.67;;;13.93;;
70908;SDS011;58554;52.006;5.926;2023-06-22T14:30:02;19.60;;;14.43;;
70908;SDS011;58554;52.006;5.926;2023-06-22T14:32:30;19.63;;;13.23;;
70908;SDS011;58554;52.006;5.926;2023-06-22T14:34:59;19.55;;;14.07;;